createdAt,value
2022-09-28T00:00:06.733Z,17.38
2022-09-28T00:02:22.799Z,12.68
2022-09-28T00:04:45.495Z,14.63
2022-09-28T00:06:51.282Z,12.32
2022-09-28T00:08:53.206Z,12.25
2022-09-28T00:10:55.191Z,8.43
2022-09-28T00:12:56.850Z,13.43
2022-09-28T00:14:58.298Z,14.50
2022-09-28T00:16:59.819Z,10.88
2022-09-28T00:19:01.805Z,13.85
2022-09-28T00:21:22.887Z,7.47
2022-09-28T00:23:24.593Z,9.63
2022-09-28T00:25:26.328Z,15.60
2022-09-28T00:27:27.779Z,13.70
2022-09-28T00:29:31.709Z,11.02
2022-09-28T00:31:34.427Z,9.10
2022-09-28T00:33:36.243Z,9.27
2022-09-28T00:35:37.838Z,9.15
2022-09-28T00:37:39.877Z,11.38
2022-09-28T00:39:41.579Z,6.32
2022-09-28T00:41:43.685Z,8.15
2022-09-28T00:43:45.205Z,12.60
2022-09-28T00:45:52.326Z,6.65
2022-09-28T00:47:58.750Z,11.98
2022-09-28T00:50:05.784Z,12.55
2022-09-28T00:52:08.441Z,13.18
2022-09-28T00:54:10.390Z,10.68
2022-09-28T00:56:14.185Z,19.00
2022-09-28T00:58:20.753Z,9.68
2022-09-28T01:00:22.355Z,7.68
2022-09-28T01:02:24.022Z,21.35
2022-09-28T01:04:29.738Z,13.63
2022-09-28T01:06:33.323Z,9.00
2022-09-28T01:08:35.720Z,16.15
2022-09-28T01:10:38.741Z,15.90
2022-09-28T01:12:40.419Z,5.78
2022-09-28T01:14:42.353Z,13.85
2022-09-28T01:16:53.043Z,10.95
2022-09-28T01:18:55.082Z,9.23
2022-09-28T01:21:17.858Z,13.00
2022-09-28T01:23:25.512Z,8.00
2022-09-28T01:25:45.598Z,14.05
2022-09-28T01:27:52.027Z,12.98
2022-09-28T01:30:06.299Z,9.73
2022-09-28T01:32:21.926Z,12.82
2022-09-28T01:34:31.248Z,12.70
2022-09-28T01:36:42.854Z,7.57
2022-09-28T01:38:49.482Z,10.77
2022-09-28T01:40:51.993Z,11.77
2022-09-28T01:42:59.931Z,15.93
2022-09-28T01:45:05.010Z,6.55
2022-09-28T01:47:09.405Z,8.30
2022-09-28T01:49:13.094Z,14.18
2022-09-28T01:51:23.214Z,15.52
2022-09-28T01:53:43.310Z,19.10
2022-09-28T01:55:50.375Z,12.30
2022-09-28T01:57:55.446Z,13.80
2022-09-28T02:00:02.451Z,14.85
2022-09-28T02:02:10.414Z,15.82
2022-09-28T02:04:44.086Z,5.07
2022-09-28T02:07:05.861Z,17.52
2022-09-28T02:09:11.227Z,11.15
2022-09-28T02:11:16.991Z,7.25
2022-09-28T02:13:22.058Z,11.38
2022-09-28T02:15:28.845Z,10.63
2022-09-28T02:17:30.557Z,9.50
2022-09-28T02:19:32.990Z,10.45
2022-09-28T02:21:43.708Z,9.50
2022-09-28T02:23:51.608Z,8.82
2022-09-28T02:25:58.875Z,8.65
2022-09-28T02:28:02.223Z,8.88
2022-09-28T02:30:04.883Z,8.07
2022-09-28T02:32:06.388Z,16.10
2022-09-28T02:34:08.968Z,12.00
2022-09-28T02:36:10.963Z,7.55
2022-09-28T02:38:13.117Z,14.07
2022-09-28T02:40:22.184Z,15.50
2022-09-28T02:42:33.424Z,18.13
2022-09-28T02:44:43.009Z,13.55
2022-09-28T02:46:46.935Z,7.68
2022-09-28T02:49:04.941Z,14.13
2022-09-28T02:51:21.614Z,10.40
2022-09-28T02:53:51.148Z,6.72
2022-09-28T02:55:55.109Z,15.00
2022-09-28T02:58:11.280Z,8.13
2022-09-28T03:00:24.139Z,11.15
2022-09-28T03:02:40.496Z,16.90
2022-09-28T03:04:48.547Z,13.00
2022-09-28T03:06:57.053Z,7.07
2022-09-28T03:09:00.775Z,14.18
2022-09-28T03:11:09.637Z,6.32
2022-09-28T03:13:12.338Z,16.17
2022-09-28T03:15:20.108Z,11.93
2022-09-28T03:17:21.574Z,15.18
2022-09-28T03:19:25.072Z,16.63
2022-09-28T03:21:26.644Z,11.68
2022-09-28T03:23:28.373Z,8.60
2022-09-28T03:25:30.203Z,8.95
2022-09-28T03:27:31.772Z,10.15
2022-09-28T03:29:34.478Z,13.00
2022-09-28T03:31:36.009Z,7.88
2022-09-28T03:33:38.723Z,11.68
2022-09-28T03:35:40.230Z,7.20
2022-09-28T03:38:07.380Z,9.45
2022-09-28T03:40:09.332Z,5.93
2022-09-28T03:42:10.843Z,9.30
2022-09-28T03:44:12.904Z,10.73
2022-09-28T03:46:14.403Z,16.30
2022-09-28T03:48:17.206Z,6.50
2022-09-28T03:50:21.184Z,7.25
2022-09-28T03:52:23.030Z,15.65
2022-09-28T03:54:24.575Z,4.57
2022-09-28T03:56:26.152Z,5.97
2022-09-28T03:58:28.070Z,6.82
2022-09-28T04:00:29.987Z,4.47
2022-09-28T04:02:31.571Z,9.82
2022-09-28T04:04:33.438Z,8.68
2022-09-28T04:06:34.985Z,8.07
2022-09-28T04:08:36.566Z,9.45
2022-09-28T04:10:38.055Z,3.85
2022-09-28T04:12:39.599Z,12.18
2022-09-28T04:14:41.226Z,10.75
2022-09-28T04:16:42.692Z,7.50
2022-09-28T04:18:44.494Z,6.18
2022-09-28T04:20:48.153Z,6.68
2022-09-28T04:22:50.412Z,5.38
2022-09-28T04:24:52.107Z,18.17
2022-09-28T04:27:13.558Z,8.50
2022-09-28T04:29:18.856Z,10.23
2022-09-28T04:31:22.331Z,3.88
2022-09-28T04:33:23.930Z,9.33
2022-09-28T04:35:25.458Z,9.90
2022-09-28T04:37:26.927Z,9.57
2022-09-28T04:39:28.510Z,8.00
2022-09-28T04:41:30.016Z,7.47
2022-09-28T04:43:31.900Z,4.60
2022-09-28T04:45:33.413Z,9.77
2022-09-28T04:47:34.929Z,4.53
2022-09-28T04:49:38.423Z,7.85
2022-09-28T04:51:40.219Z,6.90
2022-09-28T04:53:41.700Z,8.63
2022-09-28T04:55:43.213Z,4.50
2022-09-28T04:57:44.787Z,3.65
2022-09-28T04:59:46.345Z,5.10
2022-09-28T05:01:48.363Z,7.03
2022-09-28T05:03:51.040Z,5.75
2022-09-28T05:05:52.855Z,6.40
2022-09-28T05:07:57.095Z,7.43
2022-09-28T05:12:00.286Z,3.85
2022-09-28T05:14:01.813Z,9.90
2022-09-28T05:16:05.637Z,7.95
2022-09-28T05:18:07.577Z,2.83
2022-09-28T05:20:09.282Z,8.32
2022-09-28T05:22:14.865Z,3.88
2022-09-28T05:24:16.643Z,5.65
2022-09-28T05:26:19.300Z,5.75
2022-09-28T05:28:24.321Z,5.63
2022-09-28T05:30:26.039Z,7.95
2022-09-28T05:32:27.606Z,4.60
2022-09-28T05:34:29.239Z,3.90
2022-09-28T05:36:32.636Z,1.80
2022-09-28T05:38:34.385Z,4.10
2022-09-28T05:40:35.858Z,8.60
2022-09-28T05:42:37.644Z,5.97
2022-09-28T05:44:39.159Z,2.35
2022-09-28T05:46:40.638Z,4.22
2022-09-28T05:48:46.658Z,7.63
2022-09-28T05:51:00.852Z,5.38
2022-09-28T05:53:13.693Z,4.00
2022-09-28T05:55:24.473Z,5.45
2022-09-28T05:57:36.364Z,4.53
2022-09-28T05:59:44.766Z,2.90
2022-09-28T06:01:55.155Z,2.88
2022-09-28T06:04:06.187Z,7.25
2022-09-28T06:06:16.720Z,4.53
2022-09-28T06:08:27.055Z,4.72
2022-09-28T06:10:38.041Z,7.07
2022-09-28T06:12:46.237Z,5.10
2022-09-28T06:14:52.737Z,8.40
2022-09-28T06:16:59.842Z,8.40
2022-09-28T06:19:02.647Z,7.60
2022-09-28T06:21:05.942Z,5.85
2022-09-28T06:23:07.922Z,4.90
2022-09-28T06:25:09.795Z,4.55
2022-09-28T06:27:11.448Z,11.55
2022-09-28T06:29:19.807Z,8.80
2022-09-28T06:31:24.124Z,12.02
2022-09-28T06:33:26.500Z,6.35
2022-09-28T06:35:30.600Z,6.28
2022-09-28T06:37:33.132Z,11.95
2022-09-28T06:39:34.660Z,3.63
2022-09-28T06:41:36.248Z,10.90
2022-09-28T06:43:39.711Z,4.80
2022-09-28T06:45:41.762Z,6.63
2022-09-28T06:47:43.527Z,11.48
2022-09-28T06:49:47.855Z,6.00
2022-09-28T06:51:49.365Z,4.85
2022-09-28T06:53:53.906Z,3.83
2022-09-28T06:55:56.232Z,4.95
2022-09-28T06:58:02.210Z,12.75
2022-09-28T07:00:04.641Z,10.30
2022-09-28T07:02:06.357Z,7.25
2022-09-28T07:04:08.203Z,13.40
2022-09-28T07:06:11.539Z,4.90
2022-09-28T07:08:14.390Z,7.70
2022-09-28T07:10:16.090Z,7.60
2022-09-28T07:12:17.601Z,9.38
2022-09-28T07:14:39.136Z,10.93
2022-09-28T07:17:09.573Z,7.65
2022-09-28T07:19:03.678Z,9.65
2022-09-28T07:21:08.632Z,12.38
2022-09-28T07:23:19.115Z,6.97
2022-09-28T07:25:21.952Z,7.55
2022-09-28T07:27:28.166Z,5.95
2022-09-28T07:29:30.634Z,8.73
2022-09-28T07:31:33.856Z,8.88
2022-09-28T07:33:35.380Z,5.22
2022-09-28T07:35:36.955Z,11.75
2022-09-28T07:37:38.532Z,8.55
2022-09-28T07:39:58.938Z,8.63
2022-09-28T07:42:02.937Z,9.90
2022-09-28T07:44:07.697Z,10.27
2022-09-28T07:46:12.117Z,14.57
2022-09-28T07:48:16.924Z,11.30
2022-09-28T07:50:18.508Z,13.60
2022-09-28T07:52:20.210Z,10.20
2022-09-28T07:54:21.903Z,14.75
2022-09-28T07:56:23.700Z,11.23
2022-09-28T07:58:25.365Z,10.52
2022-09-28T08:00:34.121Z,6.30
2022-09-28T08:02:37.490Z,8.55
2022-09-28T08:04:39.813Z,12.63
2022-09-28T08:06:41.557Z,8.23
2022-09-28T08:08:46.535Z,12.38
2022-09-28T08:10:48.129Z,10.27
2022-09-28T08:12:55.166Z,14.18
2022-09-28T08:14:56.723Z,8.73
2022-09-28T08:16:58.245Z,5.82
2022-09-28T08:18:59.802Z,8.50
2022-09-28T08:21:23.442Z,4.82
2022-09-28T08:23:25.861Z,6.68
2022-09-28T08:25:27.352Z,9.50
2022-09-28T08:27:29.034Z,7.18
2022-09-28T08:29:31.939Z,5.57
2022-09-28T08:31:33.907Z,5.35
2022-09-28T08:33:35.748Z,9.52
2022-09-28T08:35:38.002Z,4.82
2022-09-28T08:37:39.533Z,6.90
2022-09-28T08:39:41.180Z,4.82
2022-09-28T08:41:48.589Z,13.07
2022-09-28T08:44:12.050Z,5.88
2022-09-28T08:46:15.121Z,6.30
2022-09-28T08:48:38.209Z,8.05
2022-09-28T08:51:09.846Z,2.33
2022-09-28T08:53:33.022Z,4.10
2022-09-28T08:55:40.777Z,6.03
2022-09-28T08:57:47.198Z,5.13
2022-09-28T08:59:56.611Z,4.40
2022-09-28T09:02:01.945Z,3.42
2022-09-28T09:04:09.537Z,4.65
2022-09-28T09:06:18.277Z,7.07
2022-09-28T09:08:28.165Z,5.47
2022-09-28T09:11:02.257Z,9.48
2022-09-28T09:13:25.764Z,6.28
2022-09-28T09:15:29.816Z,7.35
2022-09-28T09:19:49.888Z,4.38
2022-09-28T09:21:58.573Z,3.90
2022-09-28T09:24:28.510Z,2.30
2022-09-28T09:26:40.874Z,5.65
2022-09-28T09:28:43.755Z,6.30
2022-09-28T09:30:56.787Z,1.90
2022-09-28T09:33:17.135Z,3.60
2022-09-28T09:35:29.107Z,5.15
2022-09-28T09:40:02.783Z,8.50
2022-09-28T09:42:37.441Z,7.38
2022-09-28T09:44:57.221Z,4.32
2022-09-28T09:47:04.632Z,4.22
2022-09-28T09:49:15.869Z,7.53
2022-09-28T09:51:26.740Z,4.32
2022-09-28T09:53:40.846Z,3.08
2022-09-28T09:55:46.686Z,5.53
2022-09-28T09:57:53.141Z,4.45
2022-09-28T09:59:57.275Z,4.90
2022-09-28T10:02:01.007Z,1.58
2022-09-28T10:04:04.882Z,3.10
2022-09-28T10:08:08.934Z,4.63
2022-09-28T10:10:31.230Z,8.70
2022-09-28T10:12:33.234Z,1.70
2022-09-28T10:14:35.769Z,8.18
2022-09-28T10:16:37.386Z,2.60
2022-09-28T10:18:39.090Z,4.75
2022-09-28T10:20:42.839Z,5.95
2022-09-28T10:22:44.666Z,4.13
2022-09-28T10:24:47.550Z,6.15
2022-09-28T10:26:50.918Z,4.47
2022-09-28T10:28:55.234Z,3.47
2022-09-28T10:30:56.862Z,3.92
2022-09-28T10:33:00.767Z,4.93
2022-09-28T10:35:20.450Z,10.32
2022-09-28T10:37:24.153Z,5.22
2022-09-28T10:39:30.536Z,5.05
2022-09-28T10:41:32.373Z,7.00
2022-09-28T10:43:35.216Z,4.28
2022-09-28T10:45:37.637Z,3.20
2022-09-28T10:47:43.370Z,4.03
2022-09-28T10:49:47.422Z,6.03
2022-09-28T10:51:51.721Z,3.85
2022-09-28T10:54:00.982Z,4.40
2022-09-28T10:56:04.723Z,5.35
2022-09-28T10:58:25.103Z,8.20
2022-09-28T11:00:32.360Z,2.60
2022-09-28T11:02:38.181Z,3.45
2022-09-28T11:04:43.649Z,5.50
2022-09-28T11:06:46.934Z,2.97
2022-09-28T11:08:49.386Z,2.00
2022-09-28T11:11:01.951Z,3.55
2022-09-28T11:13:03.424Z,2.15
2022-09-28T11:15:06.428Z,5.30
2022-09-28T11:17:17.126Z,3.42
2022-09-28T11:19:18.848Z,5.78
2022-09-28T11:21:28.964Z,3.83
2022-09-28T11:23:31.249Z,3.88
2022-09-28T11:25:32.770Z,1.70
2022-09-28T11:27:34.339Z,5.13
2022-09-28T11:29:44.393Z,4.90
2022-09-28T11:31:46.659Z,3.13
2022-09-28T11:33:48.331Z,2.65
2022-09-28T11:36:04.786Z,5.47
2022-09-28T11:38:25.019Z,2.42
2022-09-28T11:40:46.980Z,1.63
2022-09-28T11:43:02.677Z,3.25
2022-09-28T11:45:11.831Z,2.35
2022-09-28T11:47:32.263Z,2.30
2022-09-28T11:49:38.286Z,3.50
2022-09-28T11:51:41.150Z,2.60
2022-09-28T11:53:45.476Z,1.73
2022-09-28T11:55:49.424Z,3.90
2022-09-28T11:58:11.649Z,1.63
2022-09-28T12:00:19.717Z,3.85
2022-09-28T12:02:29.104Z,3.30
2022-09-28T12:04:35.057Z,5.88
2022-09-28T12:07:09.749Z,3.15
2022-09-28T12:09:27.329Z,2.80
2022-09-28T12:11:38.561Z,4.25
2022-09-28T12:13:57.768Z,5.95
2022-09-28T12:19:28.064Z,3.50
2022-09-28T12:21:36.552Z,1.70
2022-09-28T12:23:44.194Z,4.18
2022-09-28T12:25:52.718Z,1.83
2022-09-28T12:28:02.269Z,2.63
2022-09-28T12:30:15.559Z,3.97
2022-09-28T12:32:20.144Z,2.45
2022-09-28T12:34:22.658Z,2.53
2022-09-28T12:36:28.532Z,2.20
2022-09-28T12:38:30.273Z,3.58
2022-09-28T12:40:32.062Z,10.88
2022-09-28T12:42:53.061Z,1.10
2022-09-28T12:45:03.463Z,2.03
2022-09-28T12:47:09.779Z,2.08
2022-09-28T12:51:47.948Z,1.42
2022-09-28T12:54:13.966Z,2.78
2022-09-28T12:56:21.917Z,4.82
2022-09-28T12:58:26.155Z,1.85
2022-09-28T13:00:36.478Z,4.72
2022-09-28T13:02:50.549Z,1.88
2022-09-28T13:05:05.036Z,1.67
2022-09-28T13:09:22.169Z,3.47
2022-09-28T13:11:26.478Z,1.63
2022-09-28T13:13:51.827Z,2.95
2022-09-28T13:16:28.598Z,2.80
2022-09-28T13:18:33.637Z,2.22
2022-09-28T13:20:58.643Z,3.28
2022-09-28T13:23:20.630Z,0.77
2022-09-28T13:25:23.699Z,0.98
2022-09-28T13:27:37.110Z,2.70
2022-09-28T13:31:47.748Z,1.33
2022-09-28T13:33:50.343Z,4.30
2022-09-28T13:35:51.951Z,4.75
2022-09-28T13:38:12.388Z,1.63
2022-09-28T13:40:14.303Z,2.88
2022-09-28T13:42:34.044Z,4.63
2022-09-28T13:44:38.514Z,0.93
2022-09-28T13:46:43.208Z,1.55
2022-09-28T13:48:58.619Z,2.42
2022-09-28T13:51:06.646Z,3.58
2022-09-28T13:53:30.754Z,2.15
2022-09-28T13:55:35.234Z,3.17
2022-09-28T13:57:37.226Z,1.88
2022-09-28T13:59:48.104Z,3.83
2022-09-28T14:02:07.119Z,3.42
2022-09-28T14:04:12.064Z,3.03
2022-09-28T14:06:27.418Z,5.82
2022-09-28T14:08:33.553Z,3.60
2022-09-28T14:10:49.569Z,1.20
2022-09-28T14:12:51.765Z,1.15
2022-09-28T14:14:54.206Z,2.50
2022-09-28T14:17:15.251Z,1.98
2022-09-28T14:19:16.804Z,3.78
2022-09-28T14:21:18.450Z,2.72
2022-09-28T14:23:35.927Z,1.63
2022-09-28T14:25:56.256Z,1.25
2022-09-28T14:27:57.836Z,1.27
2022-09-28T14:30:20.011Z,5.63
2022-09-28T14:32:22.817Z,2.72
2022-09-28T14:34:44.197Z,3.80
2022-09-28T14:37:07.458Z,1.90
2022-09-28T14:39:38.969Z,2.00
2022-09-28T14:41:42.805Z,1.35
2022-09-28T14:43:44.198Z,3.30
2022-09-28T14:45:45.760Z,2.65
2022-09-28T14:48:05.698Z,3.42
2022-09-28T14:50:24.026Z,1.60
2022-09-28T14:52:39.318Z,1.10
2022-09-28T14:54:45.294Z,4.22
2022-09-28T14:56:52.641Z,3.10
2022-09-28T14:58:56.909Z,2.58
2022-09-28T15:01:01.654Z,4.15
2022-09-28T15:03:07.793Z,6.75
2022-09-28T15:05:16.793Z,1.63
2022-09-28T15:07:23.152Z,4.45
2022-09-28T15:09:39.551Z,0.52
2022-09-28T15:11:47.999Z,3.58
2022-09-28T15:14:06.934Z,0.98
2022-09-28T15:16:19.540Z,1.75
2022-09-28T15:18:30.171Z,0.43
2022-09-28T15:20:42.677Z,2.40
2022-09-28T15:22:46.290Z,3.58
2022-09-28T15:25:03.431Z,1.77
2022-09-28T15:27:23.659Z,4.28
2022-09-28T15:29:33.258Z,3.58
2022-09-28T15:31:37.738Z,0.50
2022-09-28T15:34:05.425Z,1.48
2022-09-28T15:36:13.792Z,0.60
2022-09-28T15:38:17.552Z,1.63
2022-09-28T15:40:31.125Z,3.08
2022-09-28T15:42:37.379Z,6.63
2022-09-28T15:44:39.841Z,1.42
2022-09-28T15:46:47.852Z,0.68
2022-09-28T15:48:55.221Z,2.30
2022-09-28T15:50:58.459Z,3.60
2022-09-28T15:53:02.246Z,6.22
2022-09-28T15:55:06.331Z,3.60
2022-09-28T15:57:28.024Z,0.88
2022-09-28T15:59:37.098Z,2.92
2022-09-28T16:01:39.806Z,0.95
2022-09-28T16:03:41.428Z,2.85
2022-09-28T16:05:57.726Z,2.78
2022-09-28T16:08:01.983Z,1.48
2022-09-28T16:10:25.894Z,1.42
2022-09-28T16:12:50.670Z,1.97
2022-09-28T16:14:54.172Z,1.65
2022-09-28T16:16:57.179Z,3.75
2022-09-28T16:19:00.697Z,2.75
2022-09-28T16:21:22.268Z,2.20
2022-09-28T16:23:24.183Z,1.67
2022-09-28T16:25:26.751Z,1.30
2022-09-28T16:27:29.955Z,2.55
2022-09-28T16:29:35.776Z,2.47
2022-09-28T16:31:37.972Z,3.10
2022-09-28T16:34:01.238Z,3.33
2022-09-28T16:36:03.387Z,1.92
2022-09-28T16:38:11.940Z,4.70
2022-09-28T16:40:13.792Z,4.22
2022-09-28T16:42:15.629Z,1.25
2022-09-28T16:44:27.979Z,1.25
2022-09-28T16:46:37.644Z,3.05
2022-09-28T16:48:48.686Z,2.90
2022-09-28T16:50:51.059Z,5.22
2022-09-28T16:53:29.307Z,8.38
2022-09-28T16:55:40.623Z,3.00
2022-09-28T16:57:44.042Z,0.77
2022-09-28T16:59:45.677Z,3.28
2022-09-28T17:01:47.395Z,3.90
2022-09-28T17:03:50.271Z,0.40
2022-09-28T17:05:52.762Z,0.88
2022-09-28T17:08:04.120Z,3.70
2022-09-28T17:10:14.210Z,1.75
2022-09-28T17:12:19.414Z,3.15
2022-09-28T17:14:23.398Z,3.65
2022-09-28T17:18:46.938Z,3.28
2022-09-28T17:20:50.027Z,3.78
2022-09-28T17:22:51.962Z,0.88
2022-09-28T17:24:53.495Z,1.63
2022-09-28T17:26:55.251Z,4.93
2022-09-28T17:29:00.225Z,3.78
2022-09-28T17:31:02.253Z,1.88
2022-09-28T17:33:03.922Z,3.90
2022-09-28T17:35:23.475Z,2.53
2022-09-28T17:37:25.503Z,1.23
2022-09-28T17:39:27.340Z,2.78
2022-09-28T17:41:28.998Z,2.33
2022-09-28T17:43:30.505Z,3.33
2022-09-28T17:45:32.904Z,2.22
2022-09-28T17:47:34.629Z,6.65
2022-09-28T17:49:36.346Z,5.18
2022-09-28T17:51:38.329Z,4.65
2022-09-28T17:53:40.141Z,3.50
2022-09-28T17:55:43.188Z,2.17
2022-09-28T17:57:45.234Z,2.40
2022-09-28T17:59:46.748Z,2.95
2022-09-28T18:01:48.600Z,4.80
2022-09-28T18:03:50.478Z,5.30
2022-09-28T18:06:07.848Z,1.90
2022-09-28T18:08:13.659Z,4.78
2022-09-28T18:10:22.277Z,1.02
2022-09-28T18:12:31.443Z,4.88
2022-09-28T18:14:42.072Z,5.07
2022-09-28T18:16:55.218Z,1.63
2022-09-28T18:19:04.738Z,1.70
2022-09-28T18:21:09.419Z,2.00
2022-09-28T18:23:14.431Z,2.33
2022-09-28T18:25:18.345Z,1.00
2022-09-28T18:27:24.870Z,2.47
2022-09-28T18:29:33.083Z,2.65
2022-09-28T18:31:42.096Z,2.75
2022-09-28T18:33:51.984Z,1.38
2022-09-28T18:35:55.368Z,0.85
2022-09-28T18:38:04.101Z,1.45
2022-09-28T18:40:14.885Z,2.22
2022-09-28T18:42:18.158Z,3.38
2022-09-28T18:44:19.755Z,1.52
2022-09-28T18:46:21.346Z,3.42
2022-09-28T18:48:24.919Z,4.40
2022-09-28T18:50:26.512Z,2.15
2022-09-28T18:52:28.304Z,2.33
2022-09-28T18:54:29.867Z,2.20
2022-09-28T18:56:31.361Z,2.65
2022-09-28T18:58:33.824Z,4.35
2022-09-28T19:00:37.653Z,3.22
2022-09-28T19:02:39.327Z,1.75
2022-09-28T19:04:41.615Z,3.28
2022-09-28T19:06:44.727Z,2.40
2022-09-28T19:08:51.399Z,3.77
2022-09-28T19:10:53.066Z,4.85
2022-09-28T19:12:54.682Z,4.40
2022-09-28T19:14:56.499Z,2.08
2022-09-28T19:16:58.045Z,6.88
2022-09-28T19:19:00.994Z,1.20
2022-09-28T19:21:04.076Z,1.30
2022-09-28T19:23:06.029Z,2.15
2022-09-28T19:25:08.905Z,2.03
2022-09-28T19:27:10.533Z,2.88
2022-09-28T19:29:12.408Z,3.25
2022-09-28T19:31:14.035Z,4.68
2022-09-28T19:33:17.523Z,5.40
2022-09-28T19:35:19.187Z,3.90
2022-09-28T19:37:20.731Z,3.70
2022-09-28T19:39:22.350Z,2.42
2022-09-28T19:41:43.371Z,3.38
2022-09-28T19:43:45.697Z,4.68
2022-09-28T19:45:52.375Z,3.00
2022-09-28T19:47:57.365Z,4.22
2022-09-28T19:50:01.098Z,4.82
2022-09-28T19:52:19.470Z,6.25
2022-09-28T19:54:22.293Z,4.05
2022-09-28T19:56:24.096Z,5.68
2022-09-28T19:58:28.456Z,4.72
2022-09-28T20:00:30.052Z,5.80
2022-09-28T20:02:32.930Z,3.80
2022-09-28T20:04:34.505Z,4.85
2022-09-28T20:06:35.981Z,7.20
2022-09-28T20:08:40.277Z,6.68
2022-09-28T20:10:55.018Z,4.45
2022-09-28T20:12:56.497Z,6.68
2022-09-28T20:14:58.317Z,4.78
2022-09-28T20:16:59.863Z,7.95
2022-09-28T20:19:03.974Z,5.65
2022-09-28T20:23:07.307Z,3.97
2022-09-28T20:25:08.847Z,4.72
2022-09-28T20:27:10.639Z,5.03
2022-09-28T20:29:12.414Z,3.75
2022-09-28T20:31:24.264Z,4.75
2022-09-28T20:33:28.858Z,6.47
2022-09-28T20:35:33.338Z,5.97
2022-09-28T20:37:35.731Z,7.20
2022-09-28T20:39:40.416Z,4.40
2022-09-28T20:41:47.321Z,2.55
2022-09-28T20:43:53.108Z,3.03
2022-09-28T20:45:55.784Z,4.35
2022-09-28T20:47:57.393Z,6.65
2022-09-28T20:49:59.178Z,2.83
2022-09-28T20:52:00.763Z,3.40
2022-09-28T20:54:02.834Z,3.15
2022-09-28T20:56:06.229Z,3.55
2022-09-28T20:58:07.823Z,3.10
2022-09-28T21:00:12.415Z,2.75
2022-09-28T21:02:15.374Z,4.07
2022-09-28T21:04:17.062Z,6.90
2022-09-28T21:06:20.336Z,4.10
2022-09-28T21:08:23.986Z,4.07
2022-09-28T21:10:25.633Z,4.70
2022-09-28T21:12:28.158Z,4.90
2022-09-28T21:14:29.917Z,4.38
2022-09-28T21:16:32.116Z,4.55
2022-09-28T21:18:33.845Z,4.70
2022-09-28T21:20:38.157Z,6.18
2022-09-28T21:22:48.907Z,3.63
2022-09-28T21:25:02.413Z,6.15
2022-09-28T21:27:07.390Z,2.25
2022-09-28T21:29:17.738Z,3.85
2022-09-28T21:31:29.120Z,3.47
2022-09-28T21:33:37.957Z,2.80
2022-09-28T21:35:42.389Z,2.50
2022-09-28T21:37:52.206Z,3.67
2022-09-28T21:40:04.580Z,3.67
2022-09-28T21:42:14.092Z,2.08
2022-09-28T21:44:18.997Z,3.88
2022-09-28T21:46:26.827Z,2.13
2022-09-28T21:48:30.418Z,1.77
2022-09-28T21:50:31.821Z,2.25
2022-09-28T21:52:33.306Z,3.03
2022-09-28T21:54:37.337Z,1.58
2022-09-28T21:56:38.807Z,2.75
2022-09-28T21:58:40.373Z,3.58
2022-09-28T22:00:42.082Z,2.08
2022-09-28T22:02:43.968Z,1.40
2022-09-28T22:04:45.529Z,1.98
2022-09-28T22:06:46.995Z,4.57
2022-09-28T22:08:49.214Z,3.33
2022-09-28T22:11:00.901Z,1.27
2022-09-28T22:13:02.363Z,1.98
2022-09-28T22:15:04.088Z,3.25
2022-09-28T22:17:05.647Z,3.70
2022-09-28T22:19:07.133Z,2.08
2022-09-28T22:21:13.557Z,4.95
2022-09-28T22:23:15.306Z,0.80
2022-09-28T22:25:17.336Z,4.40
2022-09-28T22:27:18.790Z,1.95
2022-09-28T22:29:21.685Z,2.17
2022-09-28T22:31:24.649Z,2.55
2022-09-28T22:33:26.544Z,3.75
2022-09-28T22:35:27.970Z,1.33
2022-09-28T22:37:29.568Z,2.80
2022-09-28T22:39:36.709Z,3.35
2022-09-28T22:41:39.392Z,3.33
2022-09-28T22:43:40.923Z,1.42
2022-09-28T22:45:42.939Z,1.42
2022-09-28T22:47:44.459Z,4.00
2022-09-28T22:49:45.931Z,2.83
2022-09-28T22:51:47.444Z,3.40
2022-09-28T22:53:49.015Z,2.38
2022-09-28T22:55:50.506Z,1.13
2022-09-28T22:57:52.281Z,1.38
2022-09-28T22:59:53.706Z,2.65
2022-09-28T23:01:55.670Z,2.85
2022-09-28T23:03:58.146Z,2.28
2022-09-28T23:05:59.575Z,1.35
2022-09-28T23:08:01.144Z,3.47
2022-09-28T23:10:02.942Z,1.52
2022-09-28T23:12:04.487Z,4.70
2022-09-28T23:14:06.719Z,5.13
2022-09-28T23:16:09.032Z,1.95
2022-09-28T23:18:10.552Z,2.65
2022-09-28T23:20:12.074Z,1.63
2022-09-28T23:22:13.807Z,5.78
2022-09-28T23:24:15.759Z,1.70
2022-09-28T23:26:18.434Z,2.10
2022-09-28T23:28:21.014Z,3.60
2022-09-28T23:30:23.775Z,1.52
2022-09-28T23:32:29.762Z,3.20
2022-09-28T23:34:33.234Z,2.45
2022-09-28T23:36:35.089Z,2.45
2022-09-28T23:38:36.577Z,1.63
2022-09-28T23:40:38.225Z,5.50
2022-09-28T23:42:39.744Z,2.10
2022-09-28T23:44:41.486Z,2.75
2022-09-28T23:46:43.150Z,2.58
2022-09-28T23:48:44.983Z,2.95
2022-09-28T23:50:46.439Z,1.98
2022-09-28T23:52:48.304Z,2.50
2022-09-28T23:54:49.778Z,4.70
2022-09-28T23:56:51.324Z,2.03
2022-09-28T23:58:52.780Z,4.28
